Terminal Aerodrome Forecast
Issued by NWS

Home | Current Version | Previous Version | Text Only | Print | Product List | Glossary On
Versions: 1 2 3 4 5 6 7 8 9 10 11 12 13 14 15 16 17 18 19 20 21 22 23 24 25 26 27 28
709
FTUS43 KGRR 171725
TAFMKG
TAF
KMKG 171725Z 1718/1818 04005KT 4SM -DZ BR OVC004
      TEMPO 1718/1719 1SM -DZ BR OVC002
     FM171900 28007KT 4SM -DZ BR OVC004
      TEMPO 1719/1722 1SM -DZ BR OVC002
     FM172200 27006KT 2SM -DZ BR OVC002
     FM181500 24009KT 6SM HZ OVC008=

USA.gov is the U.S. government's official web portal to all federal, state and local government web resources and services.